Terminal Aerodrome Forecast
Issued by NWS Twin Cities, MN

Home | Current Version | Previous Version | Text Only | Print | Product List | Glossary Off
Versions: 1 2 3 4 5 6 7 8 9 10 11 12 13 14 15 16 17 18

000
FTUS43 KMPX 271100
TAFEAU
TAF
KEAU 271132Z 2712/2812 13006KT P6SM FEW200
     FM271600 17009KT P6SM SCT050
     FM280000 18003KT P6SM SCT050
     FM280900 VRB03KT 3SM BR FEW040=

USA.gov is the U.S. government's official web portal to all federal, state and local government web resources and services.